sensor_id;sensor_type;location;lat;lon;timestamp;temperature;humidity
9041;DHT22;4555;49.918;7.012;2022-09-23T00:00:33;6.80;99.90
9041;DHT22;4555;49.918;7.012;2022-09-23T00:02:59;6.90;99.90
9041;DHT22;4555;49.918;7.012;2022-09-23T00:05:26;6.80;99.90
9041;DHT22;4555;49.918;7.012;2022-09-23T00:07:51;6.70;99.90
9041;DHT22;4555;49.918;7.012;2022-09-23T00:10:17;6.70;99.90
9041;DHT22;4555;49.918;7.012;2022-09-23T00:15:09;6.60;99.90
9041;DHT22;4555;49.918;7.012;2022-09-23T00:17:36;6.50;99.90
9041;DHT22;4555;49.918;7.012;2022-09-23T00:20:02;6.50;99.90
9041;DHT22;4555;49.918;7.012;2022-09-23T00:22:27;6.60;99.90
9041;DHT22;4555;49.918;7.012;2022-09-23T00:24:53;6.60;99.90
9041;DHT22;4555;49.918;7.012;2022-09-23T00:29:46;6.60;99.90
9041;DHT22;4555;49.918;7.012;2022-09-23T00:32:13;6.60;99.90
9041;DHT22;4555;49.918;7.012;2022-09-23T00:34:39;6.50;99.90
9041;DHT22;4555;49.918;7.012;2022-09-23T00:37:04;6.50;99.90
9041;DHT22;4555;49.918;7.012;2022-09-23T00:39:30;6.30;99.90
9041;DHT22;4555;49.918;7.012;2022-09-23T00:41:56;6.20;99.90
9041;DHT22;4555;49.918;7.012;2022-09-23T00:44:43;6.20;99.90
9041;DHT22;4555;49.918;7.012;2022-09-23T00:48:00;6.20;99.90
9041;DHT22;4555;49.918;7.012;2022-09-23T00:50:25;6.10;99.90
9041;DHT22;4555;49.918;7.012;2022-09-23T00:52:54;5.90;99.90
9041;DHT22;4555;49.918;7.012;2022-09-23T00:55:43;6.00;99.90
9041;DHT22;4555;49.918;7.012;2022-09-23T00:58:12;6.00;99.90
9041;DHT22;4555;49.918;7.012;2022-09-23T01:00:39;6.10;99.90
9041;DHT22;4555;49.918;7.012;2022-09-23T01:03:06;6.10;99.90
9041;DHT22;4555;49.918;7.012;2022-09-23T01:05:32;6.20;99.90
9041;DHT22;4555;49.918;7.012;2022-09-23T01:08:00;6.20;99.90
9041;DHT22;4555;49.918;7.012;2022-09-23T01:10:57;6.30;99.90
9041;DHT22;4555;49.918;7.012;2022-09-23T01:13:26;6.50;99.90
9041;DHT22;4555;49.918;7.012;2022-09-23T01:16:17;6.50;99.90
9041;DHT22;4555;49.918;7.012;2022-09-23T01:21:29;6.50;99.90
9041;DHT22;4555;49.918;7.012;2022-09-23T01:24:21;6.60;99.90
9041;DHT22;4555;49.918;7.012;2022-09-23T01:32:37;6.20;99.90
9041;DHT22;4555;49.918;7.012;2022-09-23T01:40:51;5.80;99.90
9041;DHT22;4555;49.918;7.012;2022-09-23T01:44:02;5.70;99.90
9041;DHT22;4555;49.918;7.012;2022-09-23T01:46:29;5.70;99.90
9041;DHT22;4555;49.918;7.012;2022-09-23T01:51:36;5.70;99.90
9041;DHT22;4555;49.918;7.012;2022-09-23T01:54:22;5.60;99.90
9041;DHT22;4555;49.918;7.012;2022-09-23T01:57:17;5.80;99.90
9041;DHT22;4555;49.918;7.012;2022-09-23T01:59:47;5.90;99.90
9041;DHT22;4555;49.918;7.012;2022-09-23T02:02:53;5.90;99.90
9041;DHT22;4555;49.918;7.012;2022-09-23T02:05:26;5.80;99.90
9041;DHT22;4555;49.918;7.012;2022-09-23T02:07:54;5.80;99.90
9041;DHT22;4555;49.918;7.012;2022-09-23T02:10:46;5.70;99.90
9041;DHT22;4555;49.918;7.012;2022-09-23T02:13:18;5.80;99.90
9041;DHT22;4555;49.918;7.012;2022-09-23T02:15:54;5.60;99.90
9041;DHT22;4555;49.918;7.012;2022-09-23T02:18:25;5.50;99.90
9041;DHT22;4555;49.918;7.012;2022-09-23T02:20:54;5.30;99.90
9041;DHT22;4555;49.918;7.012;2022-09-23T02:23:26;5.40;99.90
9041;DHT22;4555;49.918;7.012;2022-09-23T02:26:04;5.40;99.90
9041;DHT22;4555;49.918;7.012;2022-09-23T02:28:54;5.50;99.90
9041;DHT22;4555;49.918;7.012;2022-09-23T02:31:43;5.50;99.90
9041;DHT22;4555;49.918;7.012;2022-09-23T02:34:47;5.60;99.90
9041;DHT22;4555;49.918;7.012;2022-09-23T02:42:22;5.70;99.90
9041;DHT22;4555;49.918;7.012;2022-09-23T02:44:49;5.70;99.90
9041;DHT22;4555;49.918;7.012;2022-09-23T02:47:17;5.70;99.90
9041;DHT22;4555;49.918;7.012;2022-09-23T02:49:43;5.70;99.90
9041;DHT22;4555;49.918;7.012;2022-09-23T02:52:10;5.60;99.90
9041;DHT22;4555;49.918;7.012;2022-09-23T02:54:38;5.60;99.90
9041;DHT22;4555;49.918;7.012;2022-09-23T02:57:06;5.70;99.90
9041;DHT22;4555;49.918;7.012;2022-09-23T02:59:33;5.70;99.90
9041;DHT22;4555;49.918;7.012;2022-09-23T03:10:22;5.30;99.90
9041;DHT22;4555;49.918;7.012;2022-09-23T03:13:13;5.20;99.90
9041;DHT22;4555;49.918;7.012;2022-09-23T03:15:53;5.20;99.90
9041;DHT22;4555;49.918;7.012;2022-09-23T03:18:32;5.20;99.90
9041;DHT22;4555;49.918;7.012;2022-09-23T03:21:23;5.20;99.90
9041;DHT22;4555;49.918;7.012;2022-09-23T03:23:49;5.20;99.90
9041;DHT22;4555;49.918;7.012;2022-09-23T03:26:20;5.20;99.90
9041;DHT22;4555;49.918;7.012;2022-09-23T03:28:47;5.20;99.90
9041;DHT22;4555;49.918;7.012;2022-09-23T03:31:15;5.30;99.90
9041;DHT22;4555;49.918;7.012;2022-09-23T03:33:49;5.40;99.90
9041;DHT22;4555;49.918;7.012;2022-09-23T03:36:24;5.20;99.90
9041;DHT22;4555;49.918;7.012;2022-09-23T03:39:16;5.60;99.90
9041;DHT22;4555;49.918;7.012;2022-09-23T03:41:49;5.70;99.90
9041;DHT22;4555;49.918;7.012;2022-09-23T03:44:17;5.70;99.90
9041;DHT22;4555;49.918;7.012;2022-09-23T03:46:44;5.60;99.90
9041;DHT22;4555;49.918;7.012;2022-09-23T03:49:26;5.50;99.90
9041;DHT22;4555;49.918;7.012;2022-09-23T03:51:53;5.50;99.90
9041;DHT22;4555;49.918;7.012;2022-09-23T03:54:19;5.30;99.90
9041;DHT22;4555;49.918;7.012;2022-09-23T03:59:14;5.00;99.90
9041;DHT22;4555;49.918;7.012;2022-09-23T04:04:07;4.90;99.90
9041;DHT22;4555;49.918;7.012;2022-09-23T04:06:33;4.90;99.90
9041;DHT22;4555;49.918;7.012;2022-09-23T04:11:27;4.80;99.90
9041;DHT22;4555;49.918;7.012;2022-09-23T04:13:54;4.90;99.90
9041;DHT22;4555;49.918;7.012;2022-09-23T04:16:20;4.90;99.90
9041;DHT22;4555;49.918;7.012;2022-09-23T04:18:46;4.80;99.90
9041;DHT22;4555;49.918;7.012;2022-09-23T04:23:37;4.70;99.90
9041;DHT22;4555;49.918;7.012;2022-09-23T04:26:04;4.80;99.90
9041;DHT22;4555;49.918;7.012;2022-09-23T04:28:30;4.70;99.90
9041;DHT22;4555;49.918;7.012;2022-09-23T04:33:23;4.70;99.90
9041;DHT22;4555;49.918;7.012;2022-09-23T04:35:52;4.80;99.90
9041;DHT22;4555;49.918;7.012;2022-09-23T04:38:18;4.90;99.90
9041;DHT22;4555;49.918;7.012;2022-09-23T04:40:44;5.10;99.90
9041;DHT22;4555;49.918;7.012;2022-09-23T04:48:02;5.00;99.90
9041;DHT22;4555;49.918;7.012;2022-09-23T04:50:28;5.10;99.90
9041;DHT22;4555;49.918;7.012;2022-09-23T04:52:53;5.00;99.90
9041;DHT22;4555;49.918;7.012;2022-09-23T04:55:20;5.00;99.90
9041;DHT22;4555;49.918;7.012;2022-09-23T04:57:46;5.00;99.90
9041;DHT22;4555;49.918;7.012;2022-09-23T05:00:13;5.00;99.90
9041;DHT22;4555;49.918;7.012;2022-09-23T05:02:43;4.90;99.90
9041;DHT22;4555;49.918;7.012;2022-09-23T05:05:10;5.00;99.90
9041;DHT22;4555;49.918;7.012;2022-09-23T05:07:35;5.00;99.90
9041;DHT22;4555;49.918;7.012;2022-09-23T05:10:01;5.20;99.90
9041;DHT22;4555;49.918;7.012;2022-09-23T05:14:53;4.90;99.90
9041;DHT22;4555;49.918;7.012;2022-09-23T05:17:20;5.00;99.90
9041;DHT22;4555;49.918;7.012;2022-09-23T05:19:45;4.90;99.90
9041;DHT22;4555;49.918;7.012;2022-09-23T05:22:11;5.00;99.90
9041;DHT22;4555;49.918;7.012;2022-09-23T05:24:36;5.00;99.90
9041;DHT22;4555;49.918;7.012;2022-09-23T05:27:03;5.10;99.90
9041;DHT22;4555;49.918;7.012;2022-09-23T05:29:31;5.20;99.90
9041;DHT22;4555;49.918;7.012;2022-09-23T05:31:57;5.20;99.90
9041;DHT22;4555;49.918;7.012;2022-09-23T05:34:23;5.20;99.90
9041;DHT22;4555;49.918;7.012;2022-09-23T05:36:49;5.20;99.90
9041;DHT22;4555;49.918;7.012;2022-09-23T05:39:15;5.10;99.90
9041;DHT22;4555;49.918;7.012;2022-09-23T05:41:40;5.30;99.90
9041;DHT22;4555;49.918;7.012;2022-09-23T05:44:08;5.30;99.90
9041;DHT22;4555;49.918;7.012;2022-09-23T05:46:33;5.40;99.90
9041;DHT22;4555;49.918;7.012;2022-09-23T05:49:00;5.50;99.90
9041;DHT22;4555;49.918;7.012;2022-09-23T05:51:26;5.60;99.90
9041;DHT22;4555;49.918;7.012;2022-09-23T05:53:53;5.70;99.90
9041;DHT22;4555;49.918;7.012;2022-09-23T05:56:21;5.50;99.90
9041;DHT22;4555;49.918;7.012;2022-09-23T05:58:51;5.80;99.90
9041;DHT22;4555;49.918;7.012;2022-09-23T06:01:23;5.70;99.90
9041;DHT22;4555;49.918;7.012;2022-09-23T06:03:53;5.80;99.90
9041;DHT22;4555;49.918;7.012;2022-09-23T06:06:26;5.90;99.90
9041;DHT22;4555;49.918;7.012;2022-09-23T06:08:53;5.90;99.90
9041;DHT22;4555;49.918;7.012;2022-09-23T06:11:18;6.00;99.90
9041;DHT22;4555;49.918;7.012;2022-09-23T06:13:46;6.00;99.90
9041;DHT22;4555;49.918;7.012;2022-09-23T06:16:14;5.90;99.90
9041;DHT22;4555;49.918;7.012;2022-09-23T06:18:41;6.10;99.90
9041;DHT22;4555;49.918;7.012;2022-09-23T06:21:08;6.20;99.90
9041;DHT22;4555;49.918;7.012;2022-09-23T06:23:34;6.20;99.90
9041;DHT22;4555;49.918;7.012;2022-09-23T06:26:05;6.20;99.90
9041;DHT22;4555;49.918;7.012;2022-09-23T06:28:33;6.30;99.90
9041;DHT22;4555;49.918;7.012;2022-09-23T06:31:00;6.50;99.90
9041;DHT22;4555;49.918;7.012;2022-09-23T06:33:26;6.50;99.90
9041;DHT22;4555;49.918;7.012;2022-09-23T06:36:03;6.70;99.90
9041;DHT22;4555;49.918;7.012;2022-09-23T06:38:29;6.70;99.90
9041;DHT22;4555;49.918;7.012;2022-09-23T06:40:56;6.80;99.90
9041;DHT22;4555;49.918;7.012;2022-09-23T06:43:24;6.80;99.90
9041;DHT22;4555;49.918;7.012;2022-09-23T06:45:54;6.90;99.90
9041;DHT22;4555;49.918;7.012;2022-09-23T06:48:21;6.90;99.90
9041;DHT22;4555;49.918;7.012;2022-09-23T06:50:47;7.00;99.90
9041;DHT22;4555;49.918;7.012;2022-09-23T06:53:16;7.10;99.90
9041;DHT22;4555;49.918;7.012;2022-09-23T06:55:42;7.20;99.90
9041;DHT22;4555;49.918;7.012;2022-09-23T06:58:08;7.30;99.90
9041;DHT22;4555;49.918;7.012;2022-09-23T07:00:34;7.30;99.90
9041;DHT22;4555;49.918;7.012;2022-09-23T07:05:26;7.40;99.90
9041;DHT22;4555;49.918;7.012;2022-09-23T07:10:18;7.60;99.90
9041;DHT22;4555;49.918;7.012;2022-09-23T07:12:44;7.70;99.90
9041;DHT22;4555;49.918;7.012;2022-09-23T07:15:10;7.80;99.90
9041;DHT22;4555;49.918;7.012;2022-09-23T07:17:40;7.80;99.90
9041;DHT22;4555;49.918;7.012;2022-09-23T07:20:06;7.90;99.90
9041;DHT22;4555;49.918;7.012;2022-09-23T07:24:58;7.80;99.90
9041;DHT22;4555;49.918;7.012;2022-09-23T07:27:25;7.90;99.90
9041;DHT22;4555;49.918;7.012;2022-09-23T07:29:51;7.90;99.90
9041;DHT22;4555;49.918;7.012;2022-09-23T07:32:18;7.90;99.90
9041;DHT22;4555;49.918;7.012;2022-09-23T07:34:44;8.00;99.90
9041;DHT22;4555;49.918;7.012;2022-09-23T07:37:11;8.00;99.90
9041;DHT22;4555;49.918;7.012;2022-09-23T07:42:05;8.10;99.90
9041;DHT22;4555;49.918;7.012;2022-09-23T07:44:32;8.20;99.90
9041;DHT22;4555;49.918;7.012;2022-09-23T07:46:58;8.20;99.90
9041;DHT22;4555;49.918;7.012;2022-09-23T07:49:25;8.50;99.90
9041;DHT22;4555;49.918;7.012;2022-09-23T07:51:52;8.60;99.90
9041;DHT22;4555;49.918;7.012;2022-09-23T07:54:19;8.60;99.90
9041;DHT22;4555;49.918;7.012;2022-09-23T07:56:45;8.60;99.90
9041;DHT22;4555;49.918;7.012;2022-09-23T07:59:14;8.80;99.90
9041;DHT22;4555;49.918;7.012;2022-09-23T08:01:45;8.90;99.90
9041;DHT22;4555;49.918;7.012;2022-09-23T08:04:13;9.10;99.90
9041;DHT22;4555;49.918;7.012;2022-09-23T08:06:45;9.00;99.90
9041;DHT22;4555;49.918;7.012;2022-09-23T08:09:12;9.00;99.90
9041;DHT22;4555;49.918;7.012;2022-09-23T08:11:38;8.90;99.90
9041;DHT22;4555;49.918;7.012;2022-09-23T08:14:10;9.10;99.90
9041;DHT22;4555;49.918;7.012;2022-09-23T08:16:38;9.30;99.90
9041;DHT22;4555;49.918;7.012;2022-09-23T08:19:04;9.50;99.90
9041;DHT22;4555;49.918;7.012;2022-09-23T08:21:30;9.50;99.90
9041;DHT22;4555;49.918;7.012;2022-09-23T08:26:22;9.80;99.90
9041;DHT22;4555;49.918;7.012;2022-09-23T08:28:49;10.00;99.90
9041;DHT22;4555;49.918;7.012;2022-09-23T08:31:22;10.30;99.90
9041;DHT22;4555;49.918;7.012;2022-09-23T08:33:56;10.60;99.90
9041;DHT22;4555;49.918;7.012;2022-09-23T08:36:23;10.80;99.90
9041;DHT22;4555;49.918;7.012;2022-09-23T08:38:49;11.00;99.90
9041;DHT22;4555;49.918;7.012;2022-09-23T08:44:00;11.80;99.90
9041;DHT22;4555;49.918;7.012;2022-09-23T08:46:34;11.70;99.90
9041;DHT22;4555;49.918;7.012;2022-09-23T08:49:03;12.60;99.90
9041;DHT22;4555;49.918;7.012;2022-09-23T08:51:48;12.60;99.90
9041;DHT22;4555;49.918;7.012;2022-09-23T08:54:16;12.70;99.90
9041;DHT22;4555;49.918;7.012;2022-09-23T08:56:44;12.80;99.90
9041;DHT22;4555;49.918;7.012;2022-09-23T08:59:22;13.20;95.40
9041;DHT22;4555;49.918;7.012;2022-09-23T09:02:04;13.30;99.90
9041;DHT22;4555;49.918;7.012;2022-09-23T09:04:41;13.80;1.00
9041;DHT22;4555;49.918;7.012;2022-09-23T09:09:45;16.10;1.00
9041;DHT22;4555;49.918;7.012;2022-09-23T09:12:23;13.80;1.00
9041;DHT22;4555;49.918;7.012;2022-09-23T09:15:04;14.00;99.90
9041;DHT22;4555;49.918;7.012;2022-09-23T09:17:53;14.00;99.90
9041;DHT22;4555;49.918;7.012;2022-09-23T09:23:31;14.30;1.00
9041;DHT22;4555;49.918;7.012;2022-09-23T09:26:02;14.60;1.00
9041;DHT22;4555;49.918;7.012;2022-09-23T09:28:51;14.90;99.90
9041;DHT22;4555;49.918;7.012;2022-09-23T09:31:42;15.10;99.90
9041;DHT22;4555;49.918;7.012;2022-09-23T09:34:34;15.20;1.00
9041;DHT22;4555;49.918;7.012;2022-09-23T09:39:31;15.90;1.00
9041;DHT22;4555;49.918;7.012;2022-09-23T09:41:57;15.90;1.00
9041;DHT22;4555;49.918;7.012;2022-09-23T09:49:55;16.60;99.90
9041;DHT22;4555;49.918;7.012;2022-09-23T09:52:28;16.70;99.90
9041;DHT22;4555;49.918;7.012;2022-09-23T09:55:19;16.40;99.90
9041;DHT22;4555;49.918;7.012;2022-09-23T09:57:56;16.40;1.00
9041;DHT22;4555;49.918;7.012;2022-09-23T10:08:22;17.30;1.00
9041;DHT22;4555;49.918;7.012;2022-09-23T10:11:00;17.40;99.90
9041;DHT22;4555;49.918;7.012;2022-09-23T10:13:27;17.30;99.90
9041;DHT22;4555;49.918;7.012;2022-09-23T10:15:56;17.40;99.90
9041;DHT22;4555;49.918;7.012;2022-09-23T10:21:10;17.70;99.90
9041;DHT22;4555;49.918;7.012;2022-09-23T10:23:44;17.90;99.90
9041;DHT22;4555;49.918;7.012;2022-09-23T10:26:11;18.20;99.90
9041;DHT22;4555;49.918;7.012;2022-09-23T10:28:39;18.50;99.90
9041;DHT22;4555;49.918;7.012;2022-09-23T10:33:46;18.70;99.90
9041;DHT22;4555;49.918;7.012;2022-09-23T10:36:14;19.00;1.00
9041;DHT22;4555;49.918;7.012;2022-09-23T10:41:30;19.20;99.90
9041;DHT22;4555;49.918;7.012;2022-09-23T10:47:54;19.40;1.00
9041;DHT22;4555;49.918;7.012;2022-09-23T10:50:36;19.50;99.90
9041;DHT22;4555;49.918;7.012;2022-09-23T10:55:57;19.50;1.00
9041;DHT22;4555;49.918;7.012;2022-09-23T10:58:51;19.50;1.00
9041;DHT22;4555;49.918;7.012;2022-09-23T11:07:08;20.30;1.00
9041;DHT22;4555;49.918;7.012;2022-09-23T11:12:52;20.50;99.90
9041;DHT22;4555;49.918;7.012;2022-09-23T11:15:37;20.40;1.00
9041;DHT22;4555;49.918;7.012;2022-09-23T11:18:37;20.50;1.00
9041;DHT22;4555;49.918;7.012;2022-09-23T11:24:25;20.50;1.00
9041;DHT22;4555;49.918;7.012;2022-09-23T11:30:00;20.60;99.90
9041;DHT22;4555;49.918;7.012;2022-09-23T11:35:22;20.80;99.90
9041;DHT22;4555;49.918;7.012;2022-09-23T11:38:00;21.10;99.90
9041;DHT22;4555;49.918;7.012;2022-09-23T11:40:34;21.00;99.90
9041;DHT22;4555;49.918;7.012;2022-09-23T11:43:17;21.10;99.90
9041;DHT22;4555;49.918;7.012;2022-09-23T11:46:08;21.40;99.90
9041;DHT22;4555;49.918;7.012;2022-09-23T11:48:55;21.50;99.90
9041;DHT22;4555;49.918;7.012;2022-09-23T11:51:32;21.50;99.90
9041;DHT22;4555;49.918;7.012;2022-09-23T11:54:23;21.60;99.90
9041;DHT22;4555;49.918;7.012;2022-09-23T11:56:57;21.70;99.90
9041;DHT22;4555;49.918;7.012;2022-09-23T12:05:19;22.20;99.90
9041;DHT22;4555;49.918;7.012;2022-09-23T12:10:22;22.30;99.90
9041;DHT22;4555;49.918;7.012;2022-09-23T12:13:03;22.30;99.90
9041;DHT22;4555;49.918;7.012;2022-09-23T12:18:40;22.60;99.90
9041;DHT22;4555;49.918;7.012;2022-09-23T12:21:22;22.40;99.90
9041;DHT22;4555;49.918;7.012;2022-09-23T12:26:56;21.90;99.90
9041;DHT22;4555;49.918;7.012;2022-09-23T12:29:25;21.90;99.90
9041;DHT22;4555;49.918;7.012;2022-09-23T12:31:53;21.80;99.90
9041;DHT22;4555;49.918;7.012;2022-09-23T12:34:29;21.90;99.90
9041;DHT22;4555;49.918;7.012;2022-09-23T12:37:03;22.10;99.90
9041;DHT22;4555;49.918;7.012;2022-09-23T12:39:31;22.30;99.90
9041;DHT22;4555;49.918;7.012;2022-09-23T12:44:38;21.90;99.90
9041;DHT22;4555;49.918;7.012;2022-09-23T12:49:50;21.50;99.90
9041;DHT22;4555;49.918;7.012;2022-09-23T12:54:44;21.30;99.90
9041;DHT22;4555;49.918;7.012;2022-09-23T13:02:42;21.50;99.90
9041;DHT22;4555;49.918;7.012;2022-09-23T13:05:57;21.70;99.90
9041;DHT22;4555;49.918;7.012;2022-09-23T13:08:44;21.60;99.90
9041;DHT22;4555;49.918;7.012;2022-09-23T13:13:43;21.70;98.50
9041;DHT22;4555;49.918;7.012;2022-09-23T13:16:13;21.80;99.90
9041;DHT22;4555;49.918;7.012;2022-09-23T13:18:53;21.90;99.90
9041;DHT22;4555;49.918;7.012;2022-09-23T13:30:17;22.20;99.00
9041;DHT22;4555;49.918;7.012;2022-09-23T13:32:18;22.10;96.30
9041;DHT22;4555;49.918;7.012;2022-09-23T13:34:52;22.00;99.30
9041;DHT22;4555;49.918;7.012;2022-09-23T13:40:23;21.20;95.40
9041;DHT22;4555;49.918;7.012;2022-09-23T13:43:05;21.00;99.90
9041;DHT22;4555;49.918;7.012;2022-09-23T13:45:36;21.00;99.90
9041;DHT22;4555;49.918;7.012;2022-09-23T13:50:38;21.40;99.90
9041;DHT22;4555;49.918;7.012;2022-09-23T13:53:09;21.50;94.50
9041;DHT22;4555;49.918;7.012;2022-09-23T13:55:37;21.40;97.10
9041;DHT22;4555;49.918;7.012;2022-09-23T14:00:49;21.20;94.50
9041;DHT22;4555;49.918;7.012;2022-09-23T14:05:53;20.90;95.70
9041;DHT22;4555;49.918;7.012;2022-09-23T14:13:21;20.40;99.90
9041;DHT22;4555;49.918;7.012;2022-09-23T14:15:48;20.30;84.30
9041;DHT22;4555;49.918;7.012;2022-09-23T14:18:44;20.20;96.60
9041;DHT22;4555;49.918;7.012;2022-09-23T14:26:39;20.00;84.10
9041;DHT22;4555;49.918;7.012;2022-09-23T14:31:31;20.00;91.50
9041;DHT22;4555;49.918;7.012;2022-09-23T14:41:41;20.20;99.90
9041;DHT22;4555;49.918;7.012;2022-09-23T14:46:53;20.30;91.20
9041;DHT22;4555;49.918;7.012;2022-09-23T14:51:49;20.10;93.90
9041;DHT22;4555;49.918;7.012;2022-09-23T14:59:31;19.90;99.50
9041;DHT22;4555;49.918;7.012;2022-09-23T15:07:05;19.70;98.20
9041;DHT22;4555;49.918;7.012;2022-09-23T15:09:35;19.70;95.40
9041;DHT22;4555;49.918;7.012;2022-09-23T15:12:06;19.70;99.90
9041;DHT22;4555;49.918;7.012;2022-09-23T15:14:49;19.60;99.90
9041;DHT22;4555;49.918;7.012;2022-09-23T15:17:29;19.60;99.90
9041;DHT22;4555;49.918;7.012;2022-09-23T15:20:02;19.50;90.90
9041;DHT22;4555;49.918;7.012;2022-09-23T15:27:34;19.40;1.00
9041;DHT22;4555;49.918;7.012;2022-09-23T15:32:46;19.30;99.90
9041;DHT22;4555;49.918;7.012;2022-09-23T15:35:17;19.30;97.10
9041;DHT22;4555;49.918;7.012;2022-09-23T15:42:45;19.10;99.90
9041;DHT22;4555;49.918;7.012;2022-09-23T15:47:51;19.10;99.90
9041;DHT22;4555;49.918;7.012;2022-09-23T16:00:13;18.70;99.90
9041;DHT22;4555;49.918;7.012;2022-09-23T16:02:42;18.50;99.90
9041;DHT22;4555;49.918;7.012;2022-09-23T16:10:21;18.30;99.90
9041;DHT22;4555;49.918;7.012;2022-09-23T16:12:48;18.20;99.90
9041;DHT22;4555;49.918;7.012;2022-09-23T16:15:17;18.10;1.00
9041;DHT22;4555;49.918;7.012;2022-09-23T16:20:11;17.70;1.00
9041;DHT22;4555;49.918;7.012;2022-09-23T16:22:37;17.70;1.00
9041;DHT22;4555;49.918;7.012;2022-09-23T16:25:04;17.70;1.00
9041;DHT22;4555;49.918;7.012;2022-09-23T16:39:47;17.80;1.00
9041;DHT22;4555;49.918;7.012;2022-09-23T16:54:26;16.90;1.00
9041;DHT22;4555;49.918;7.012;2022-09-23T17:04:31;16.30;1.00
9041;DHT22;4555;49.918;7.012;2022-09-23T17:06:57;16.40;1.00
9041;DHT22;4555;49.918;7.012;2022-09-23T17:09:26;16.40;1.00
9041;DHT22;4555;49.918;7.012;2022-09-23T17:12:00;16.30;1.00
9041;DHT22;4555;49.918;7.012;2022-09-23T17:16:57;16.20;99.90
9041;DHT22;4555;49.918;7.012;2022-09-23T17:38:53;15.30;1.00
9041;DHT22;4555;49.918;7.012;2022-09-23T17:41:19;15.30;1.00
9041;DHT22;4555;49.918;7.012;2022-09-23T17:46:13;15.10;99.90
9041;DHT22;4555;49.918;7.012;2022-09-23T17:51:12;14.90;99.90
9041;DHT22;4555;49.918;7.012;2022-09-23T17:56:13;14.80;99.90
9041;DHT22;4555;49.918;7.012;2022-09-23T18:01:11;14.70;1.00
9041;DHT22;4555;49.918;7.012;2022-09-23T18:50:21;14.00;1.00
9041;DHT22;4555;49.918;7.012;2022-09-23T19:15:03;13.60;99.90
9041;DHT22;4555;49.918;7.012;2022-09-23T19:32:08;12.90;99.90
9041;DHT22;4555;49.918;7.012;2022-09-23T19:39:29;12.80;99.90
9041;DHT22;4555;49.918;7.012;2022-09-23T19:41:56;12.50;1.00
9041;DHT22;4555;49.918;7.012;2022-09-23T19:44:24;12.70;40.70
9041;DHT22;4555;49.918;7.012;2022-09-23T19:46:50;12.70;18.90
9041;DHT22;4555;49.918;7.012;2022-09-23T19:51:43;12.60;57.30
9041;DHT22;4555;49.918;7.012;2022-09-23T19:54:12;12.40;1.00
9041;DHT22;4555;49.918;7.012;2022-09-23T20:06:32;12.40;16.30
9041;DHT22;4555;49.918;7.012;2022-09-23T20:08:59;12.30;37.30
9041;DHT22;4555;49.918;7.012;2022-09-23T20:13:53;12.20;99.90
9041;DHT22;4555;49.918;7.012;2022-09-23T20:16:29;12.10;85.00
9041;DHT22;4555;49.918;7.012;2022-09-23T20:18:56;12.00;99.90
9041;DHT22;4555;49.918;7.012;2022-09-23T20:28:58;12.10;99.90
9041;DHT22;4555;49.918;7.012;2022-09-23T20:38:57;12.40;99.90
9041;DHT22;4555;49.918;7.012;2022-09-23T20:41:24;12.50;99.90
9041;DHT22;4555;49.918;7.012;2022-09-23T20:43:54;12.30;99.90
9041;DHT22;4555;49.918;7.012;2022-09-23T21:06:01;11.70;99.90
9041;DHT22;4555;49.918;7.012;2022-09-23T21:08:29;11.70;99.90
9041;DHT22;4555;49.918;7.012;2022-09-23T21:10:57;11.70;99.90
9041;DHT22;4555;49.918;7.012;2022-09-23T21:45:26;11.20;99.90
9041;DHT22;4555;49.918;7.012;2022-09-23T21:47:53;11.10;99.90
9041;DHT22;4555;49.918;7.012;2022-09-23T21:55:11;11.10;99.90
9041;DHT22;4555;49.918;7.012;2022-09-23T22:32:14;10.60;99.90
9041;DHT22;4555;49.918;7.012;2022-09-23T22:34:58;10.40;99.90
9041;DHT22;4555;49.918;7.012;2022-09-23T22:37:27;10.30;99.90
9041;DHT22;4555;49.918;7.012;2022-09-23T22:39:53;10.10;99.90
9041;DHT22;4555;49.918;7.012;2022-09-23T22:49:38;9.70;99.90
9041;DHT22;4555;49.918;7.012;2022-09-23T22:54:35;9.70;99.90
9041;DHT22;4555;49.918;7.012;2022-09-23T22:59:34;9.30;99.90
9041;DHT22;4555;49.918;7.012;2022-09-23T23:02:01;9.60;99.90
9041;DHT22;4555;49.918;7.012;2022-09-23T23:14:16;9.40;99.90
9041;DHT22;4555;49.918;7.012;2022-09-23T23:16:43;9.40;99.90
9041;DHT22;4555;49.918;7.012;2022-09-23T23:21:39;9.40;99.90
9041;DHT22;4555;49.918;7.012;2022-09-23T23:24:19;9.30;99.90
9041;DHT22;4555;49.918;7.012;2022-09-23T23:29:13;9.30;99.90
9041;DHT22;4555;49.918;7.012;2022-09-23T23:43:55;9.40;99.90
9041;DHT22;4555;49.918;7.012;2022-09-23T23:46:22;9.40;99.90
9041;DHT22;4555;49.918;7.012;2022-09-23T23:48:52;9.50;99.90
9041;DHT22;4555;49.918;7.012;2022-09-23T23:51:21;9.50;99.90
9041;DHT22;4555;49.918;7.012;2022-09-23T23:56:18;9.50;99.90
